sensor_id;sensor_type;location;lat;lon;timestamp;temperature;humidity
30694;DHT22;17446;48.022;-1.740;2022-11-20T00:00:46;9.10;99.90
30694;DHT22;17446;48.022;-1.740;2022-11-20T00:03:12;9.10;99.90
30694;DHT22;17446;48.022;-1.740;2022-11-20T00:05:38;9.10;99.90
30694;DHT22;17446;48.022;-1.740;2022-11-20T00:08:04;9.10;99.90
30694;DHT22;17446;48.022;-1.740;2022-11-20T00:10:30;9.10;99.90
30694;DHT22;17446;48.022;-1.740;2022-11-20T00:12:55;9.10;99.90
30694;DHT22;17446;48.022;-1.740;2022-11-20T00:15:22;9.10;99.90
30694;DHT22;17446;48.022;-1.740;2022-11-20T00:17:48;9.10;99.90
30694;DHT22;17446;48.022;-1.740;2022-11-20T00:20:14;9.10;99.90
30694;DHT22;17446;48.022;-1.740;2022-11-20T00:22:39;9.10;99.90
30694;DHT22;17446;48.022;-1.740;2022-11-20T00:25:05;9.10;99.90
30694;DHT22;17446;48.022;-1.740;2022-11-20T00:27:31;9.20;99.90
30694;DHT22;17446;48.022;-1.740;2022-11-20T00:29:56;9.20;99.90
30694;DHT22;17446;48.022;-1.740;2022-11-20T00:32:22;9.20;99.90
30694;DHT22;17446;48.022;-1.740;2022-11-20T00:34:47;9.30;99.90
30694;DHT22;17446;48.022;-1.740;2022-11-20T00:37:13;9.20;99.90
30694;DHT22;17446;48.022;-1.740;2022-11-20T00:39:38;9.30;99.90
30694;DHT22;17446;48.022;-1.740;2022-11-20T00:42:04;9.30;99.90
30694;DHT22;17446;48.022;-1.740;2022-11-20T00:44:30;9.30;99.90
30694;DHT22;17446;48.022;-1.740;2022-11-20T00:46:55;9.40;99.90
30694;DHT22;17446;48.022;-1.740;2022-11-20T00:49:21;9.40;99.90
30694;DHT22;17446;48.022;-1.740;2022-11-20T00:51:46;9.40;99.90
30694;DHT22;17446;48.022;-1.740;2022-11-20T00:54:12;9.40;99.90
30694;DHT22;17446;48.022;-1.740;2022-11-20T00:56:38;9.40;99.90
30694;DHT22;17446;48.022;-1.740;2022-11-20T00:59:04;9.40;99.90
30694;DHT22;17446;48.022;-1.740;2022-11-20T01:01:29;9.50;99.90
30694;DHT22;17446;48.022;-1.740;2022-11-20T01:03:58;9.50;99.90
30694;DHT22;17446;48.022;-1.740;2022-11-20T01:06:29;9.50;99.90
30694;DHT22;17446;48.022;-1.740;2022-11-20T01:08:58;9.50;99.90
30694;DHT22;17446;48.022;-1.740;2022-11-20T01:11:29;9.60;99.90
30694;DHT22;17446;48.022;-1.740;2022-11-20T01:13:57;9.60;99.90
30694;DHT22;17446;48.022;-1.740;2022-11-20T01:16:28;9.60;99.90
30694;DHT22;17446;48.022;-1.740;2022-11-20T01:18:57;9.60;99.90
30694;DHT22;17446;48.022;-1.740;2022-11-20T01:21:30;9.60;99.90
30694;DHT22;17446;48.022;-1.740;2022-11-20T01:23:57;9.60;99.90
30694;DHT22;17446;48.022;-1.740;2022-11-20T01:26:28;9.60;99.90
30694;DHT22;17446;48.022;-1.740;2022-11-20T01:28:54;9.60;99.90
30694;DHT22;17446;48.022;-1.740;2022-11-20T01:31:29;9.70;99.90
30694;DHT22;17446;48.022;-1.740;2022-11-20T01:33:57;9.70;99.90
30694;DHT22;17446;48.022;-1.740;2022-11-20T01:36:25;9.70;99.90
30694;DHT22;17446;48.022;-1.740;2022-11-20T01:38:52;9.70;99.90
30694;DHT22;17446;48.022;-1.740;2022-11-20T01:41:19;9.70;99.90
30694;DHT22;17446;48.022;-1.740;2022-11-20T01:44:04;9.70;99.90
30694;DHT22;17446;48.022;-1.740;2022-11-20T01:46:32;9.70;99.90
30694;DHT22;17446;48.022;-1.740;2022-11-20T01:49:03;9.70;99.90
30694;DHT22;17446;48.022;-1.740;2022-11-20T01:51:35;9.70;99.90
30694;DHT22;17446;48.022;-1.740;2022-11-20T01:54:08;9.80;99.90
30694;DHT22;17446;48.022;-1.740;2022-11-20T01:56:38;9.80;99.90
30694;DHT22;17446;48.022;-1.740;2022-11-20T01:59:05;9.70;99.90
30694;DHT22;17446;48.022;-1.740;2022-11-20T02:01:33;9.70;99.90
30694;DHT22;17446;48.022;-1.740;2022-11-20T02:03:59;9.70;99.90
30694;DHT22;17446;48.022;-1.740;2022-11-20T02:06:32;9.70;99.90
30694;DHT22;17446;48.022;-1.740;2022-11-20T02:09:00;9.60;99.90
30694;DHT22;17446;48.022;-1.740;2022-11-20T02:11:26;9.60;99.90
30694;DHT22;17446;48.022;-1.740;2022-11-20T02:13:51;9.60;99.90
30694;DHT22;17446;48.022;-1.740;2022-11-20T02:18:44;9.50;99.90
30694;DHT22;17446;48.022;-1.740;2022-11-20T02:26:24;9.50;99.90
30694;DHT22;17446;48.022;-1.740;2022-11-20T02:28:51;9.50;99.90
30694;DHT22;17446;48.022;-1.740;2022-11-20T02:31:17;9.50;99.90
30694;DHT22;17446;48.022;-1.740;2022-11-20T02:33:42;9.50;99.90
30694;DHT22;17446;48.022;-1.740;2022-11-20T02:36:12;9.50;99.90
30694;DHT22;17446;48.022;-1.740;2022-11-20T02:38:39;9.50;99.90
30694;DHT22;17446;48.022;-1.740;2022-11-20T02:41:05;9.50;99.90
30694;DHT22;17446;48.022;-1.740;2022-11-20T02:43:30;9.50;99.90
30694;DHT22;17446;48.022;-1.740;2022-11-20T02:45:56;9.60;99.90
30694;DHT22;17446;48.022;-1.740;2022-11-20T02:48:22;9.60;99.90
30694;DHT22;17446;48.022;-1.740;2022-11-20T02:50:47;9.60;99.90
30694;DHT22;17446;48.022;-1.740;2022-11-20T02:53:13;9.60;99.90
30694;DHT22;17446;48.022;-1.740;2022-11-20T02:55:38;9.70;99.90
30694;DHT22;17446;48.022;-1.740;2022-11-20T02:58:04;9.70;99.90
30694;DHT22;17446;48.022;-1.740;2022-11-20T03:00:30;9.70;99.90
30694;DHT22;17446;48.022;-1.740;2022-11-20T03:02:55;9.70;99.90
30694;DHT22;17446;48.022;-1.740;2022-11-20T03:05:21;9.70;99.90
30694;DHT22;17446;48.022;-1.740;2022-11-20T03:07:47;9.70;99.90
30694;DHT22;17446;48.022;-1.740;2022-11-20T03:10:12;9.70;99.90
30694;DHT22;17446;48.022;-1.740;2022-11-20T03:12:38;9.70;99.90
30694;DHT22;17446;48.022;-1.740;2022-11-20T03:15:04;9.70;99.90
30694;DHT22;17446;48.022;-1.740;2022-11-20T03:17:29;9.70;99.90
30694;DHT22;17446;48.022;-1.740;2022-11-20T03:19:56;9.70;99.90
30694;DHT22;17446;48.022;-1.740;2022-11-20T03:22:21;9.70;99.90
30694;DHT22;17446;48.022;-1.740;2022-11-20T03:24:47;9.80;99.90
30694;DHT22;17446;48.022;-1.740;2022-11-20T03:27:13;9.70;99.90
30694;DHT22;17446;48.022;-1.740;2022-11-20T03:29:38;9.70;99.90
30694;DHT22;17446;48.022;-1.740;2022-11-20T03:32:04;9.70;99.90
30694;DHT22;17446;48.022;-1.740;2022-11-20T03:34:30;9.70;99.90
30694;DHT22;17446;48.022;-1.740;2022-11-20T03:36:55;9.80;99.90
30694;DHT22;17446;48.022;-1.740;2022-11-20T03:39:21;9.80;99.90
30694;DHT22;17446;48.022;-1.740;2022-11-20T03:41:46;9.80;99.90
30694;DHT22;17446;48.022;-1.740;2022-11-20T03:44:12;9.90;99.90
30694;DHT22;17446;48.022;-1.740;2022-11-20T03:46:38;9.90;99.90
30694;DHT22;17446;48.022;-1.740;2022-11-20T03:49:04;9.90;99.90
30694;DHT22;17446;48.022;-1.740;2022-11-20T03:51:34;9.90;99.90
30694;DHT22;17446;48.022;-1.740;2022-11-20T03:54:05;9.90;99.90
30694;DHT22;17446;48.022;-1.740;2022-11-20T03:56:34;9.90;99.90
30694;DHT22;17446;48.022;-1.740;2022-11-20T03:59:00;9.90;99.90
30694;DHT22;17446;48.022;-1.740;2022-11-20T04:01:31;9.90;99.90
30694;DHT22;17446;48.022;-1.740;2022-11-20T04:03:58;9.90;99.90
30694;DHT22;17446;48.022;-1.740;2022-11-20T04:06:35;9.90;99.90
30694;DHT22;17446;48.022;-1.740;2022-11-20T04:09:01;9.90;99.90
30694;DHT22;17446;48.022;-1.740;2022-11-20T04:11:32;9.90;99.90
30694;DHT22;17446;48.022;-1.740;2022-11-20T04:13:59;9.90;99.90
30694;DHT22;17446;48.022;-1.740;2022-11-20T04:16:26;9.90;99.90
30694;DHT22;17446;48.022;-1.740;2022-11-20T04:18:55;9.90;99.90
30694;DHT22;17446;48.022;-1.740;2022-11-20T04:21:21;9.90;99.90
30694;DHT22;17446;48.022;-1.740;2022-11-20T04:23:47;10.00;99.90
30694;DHT22;17446;48.022;-1.740;2022-11-20T04:26:12;10.00;99.90
30694;DHT22;17446;48.022;-1.740;2022-11-20T04:28:39;10.00;99.90
30694;DHT22;17446;48.022;-1.740;2022-11-20T04:31:09;10.00;99.90
30694;DHT22;17446;48.022;-1.740;2022-11-20T04:33:36;10.10;99.90
30694;DHT22;17446;48.022;-1.740;2022-11-20T04:36:07;10.10;99.90
30694;DHT22;17446;48.022;-1.740;2022-11-20T04:38:35;10.10;99.90
30694;DHT22;17446;48.022;-1.740;2022-11-20T04:41:02;10.10;99.90
30694;DHT22;17446;48.022;-1.740;2022-11-20T04:43:28;10.10;99.90
30694;DHT22;17446;48.022;-1.740;2022-11-20T04:45:54;10.10;99.90
30694;DHT22;17446;48.022;-1.740;2022-11-20T04:48:20;10.10;99.90
30694;DHT22;17446;48.022;-1.740;2022-11-20T04:50:46;10.10;99.90
30694;DHT22;17446;48.022;-1.740;2022-11-20T04:53:11;10.20;99.90
30694;DHT22;17446;48.022;-1.740;2022-11-20T04:55:37;10.20;99.90
30694;DHT22;17446;48.022;-1.740;2022-11-20T04:58:03;10.20;99.90
30694;DHT22;17446;48.022;-1.740;2022-11-20T05:00:28;10.20;99.90
30694;DHT22;17446;48.022;-1.740;2022-11-20T05:02:54;10.20;99.90
30694;DHT22;17446;48.022;-1.740;2022-11-20T05:05:20;10.20;99.90
30694;DHT22;17446;48.022;-1.740;2022-11-20T05:07:45;10.20;99.90
30694;DHT22;17446;48.022;-1.740;2022-11-20T05:10:11;10.30;99.90
30694;DHT22;17446;48.022;-1.740;2022-11-20T05:12:36;10.30;99.90
30694;DHT22;17446;48.022;-1.740;2022-11-20T05:15:02;10.30;99.90
30694;DHT22;17446;48.022;-1.740;2022-11-20T05:17:27;10.30;99.90
30694;DHT22;17446;48.022;-1.740;2022-11-20T05:19:53;10.30;99.90
30694;DHT22;17446;48.022;-1.740;2022-11-20T05:22:19;10.40;99.90
30694;DHT22;17446;48.022;-1.740;2022-11-20T05:24:44;10.40;99.90
30694;DHT22;17446;48.022;-1.740;2022-11-20T05:27:10;10.40;99.90
30694;DHT22;17446;48.022;-1.740;2022-11-20T05:29:35;10.50;99.90
30694;DHT22;17446;48.022;-1.740;2022-11-20T05:32:01;10.50;99.90
30694;DHT22;17446;48.022;-1.740;2022-11-20T05:34:27;10.50;99.90
30694;DHT22;17446;48.022;-1.740;2022-11-20T05:36:52;10.50;99.90
30694;DHT22;17446;48.022;-1.740;2022-11-20T05:39:18;10.50;99.90
30694;DHT22;17446;48.022;-1.740;2022-11-20T05:41:43;10.50;99.90
30694;DHT22;17446;48.022;-1.740;2022-11-20T05:44:12;10.50;99.90
30694;DHT22;17446;48.022;-1.740;2022-11-20T05:46:38;10.60;99.90
30694;DHT22;17446;48.022;-1.740;2022-11-20T05:49:03;10.60;99.90
30694;DHT22;17446;48.022;-1.740;2022-11-20T05:51:29;10.60;99.90
30694;DHT22;17446;48.022;-1.740;2022-11-20T05:53:57;10.60;99.90
30694;DHT22;17446;48.022;-1.740;2022-11-20T05:56:24;10.60;99.90
30694;DHT22;17446;48.022;-1.740;2022-11-20T05:58:49;10.60;99.90
30694;DHT22;17446;48.022;-1.740;2022-11-20T06:01:21;10.60;99.90
30694;DHT22;17446;48.022;-1.740;2022-11-20T06:03:47;10.60;99.90
30694;DHT22;17446;48.022;-1.740;2022-11-20T06:06:14;10.60;99.90
30694;DHT22;17446;48.022;-1.740;2022-11-20T06:08:40;10.60;99.90
30694;DHT22;17446;48.022;-1.740;2022-11-20T06:11:07;10.70;99.90
30694;DHT22;17446;48.022;-1.740;2022-11-20T06:13:33;10.70;99.90
30694;DHT22;17446;48.022;-1.740;2022-11-20T06:15:59;10.70;99.90
30694;DHT22;17446;48.022;-1.740;2022-11-20T06:18:26;10.70;99.90
30694;DHT22;17446;48.022;-1.740;2022-11-20T06:23:35;10.70;99.90
30694;DHT22;17446;48.022;-1.740;2022-11-20T06:26:12;10.70;99.90
30694;DHT22;17446;48.022;-1.740;2022-11-20T06:28:37;10.70;99.90
30694;DHT22;17446;48.022;-1.740;2022-11-20T06:31:04;10.80;99.90
30694;DHT22;17446;48.022;-1.740;2022-11-20T06:33:30;10.80;99.90
30694;DHT22;17446;48.022;-1.740;2022-11-20T06:35:57;10.80;99.90
30694;DHT22;17446;48.022;-1.740;2022-11-20T06:38:24;10.90;99.90
30694;DHT22;17446;48.022;-1.740;2022-11-20T06:40:49;10.90;99.90
30694;DHT22;17446;48.022;-1.740;2022-11-20T06:43:15;11.00;99.90
30694;DHT22;17446;48.022;-1.740;2022-11-20T06:45:40;11.00;99.90
30694;DHT22;17446;48.022;-1.740;2022-11-20T06:48:06;11.00;99.90
30694;DHT22;17446;48.022;-1.740;2022-11-20T06:50:32;11.10;99.90
30694;DHT22;17446;48.022;-1.740;2022-11-20T06:53:01;11.10;99.90
30694;DHT22;17446;48.022;-1.740;2022-11-20T06:55:27;11.10;99.90
30694;DHT22;17446;48.022;-1.740;2022-11-20T06:57:53;11.10;99.90
30694;DHT22;17446;48.022;-1.740;2022-11-20T07:00:18;11.10;99.90
30694;DHT22;17446;48.022;-1.740;2022-11-20T07:02:44;11.10;99.90
30694;DHT22;17446;48.022;-1.740;2022-11-20T07:05:10;11.10;99.90
30694;DHT22;17446;48.022;-1.740;2022-11-20T07:07:35;11.10;99.90
30694;DHT22;17446;48.022;-1.740;2022-11-20T07:10:01;11.10;99.90
30694;DHT22;17446;48.022;-1.740;2022-11-20T07:12:27;11.10;99.90
30694;DHT22;17446;48.022;-1.740;2022-11-20T07:14:52;11.10;99.90
30694;DHT22;17446;48.022;-1.740;2022-11-20T07:17:18;11.10;99.90
30694;DHT22;17446;48.022;-1.740;2022-11-20T07:19:43;11.10;99.90
30694;DHT22;17446;48.022;-1.740;2022-11-20T07:22:09;11.10;99.90
30694;DHT22;17446;48.022;-1.740;2022-11-20T07:24:35;11.10;99.90
30694;DHT22;17446;48.022;-1.740;2022-11-20T07:27:00;11.10;99.90
30694;DHT22;17446;48.022;-1.740;2022-11-20T07:29:26;11.10;99.90
30694;DHT22;17446;48.022;-1.740;2022-11-20T07:31:51;11.10;99.90
30694;DHT22;17446;48.022;-1.740;2022-11-20T07:34:17;11.10;99.90
30694;DHT22;17446;48.022;-1.740;2022-11-20T07:36:43;11.10;99.90
30694;DHT22;17446;48.022;-1.740;2022-11-20T07:39:08;11.10;99.90
30694;DHT22;17446;48.022;-1.740;2022-11-20T07:41:34;11.00;99.90
30694;DHT22;17446;48.022;-1.740;2022-11-20T07:43:59;11.00;99.90
30694;DHT22;17446;48.022;-1.740;2022-11-20T07:46:25;11.00;99.90
30694;DHT22;17446;48.022;-1.740;2022-11-20T07:48:51;10.90;99.90
30694;DHT22;17446;48.022;-1.740;2022-11-20T07:51:16;10.90;99.90
30694;DHT22;17446;48.022;-1.740;2022-11-20T07:53:42;10.90;99.90
30694;DHT22;17446;48.022;-1.740;2022-11-20T07:56:07;10.90;99.90
30694;DHT22;17446;48.022;-1.740;2022-11-20T07:58:33;10.90;99.90
30694;DHT22;17446;48.022;-1.740;2022-11-20T08:01:07;10.90;99.90
30694;DHT22;17446;48.022;-1.740;2022-11-20T08:03:35;10.90;99.90
30694;DHT22;17446;48.022;-1.740;2022-11-20T08:06:03;10.80;99.90
30694;DHT22;17446;48.022;-1.740;2022-11-20T08:08:29;10.80;99.90
30694;DHT22;17446;48.022;-1.740;2022-11-20T08:10:57;10.80;99.90
30694;DHT22;17446;48.022;-1.740;2022-11-20T08:13:43;10.80;99.90
30694;DHT22;17446;48.022;-1.740;2022-11-20T08:16:28;10.70;99.90
30694;DHT22;17446;48.022;-1.740;2022-11-20T08:18:53;10.70;99.90
30694;DHT22;17446;48.022;-1.740;2022-11-20T08:21:19;10.70;99.90
30694;DHT22;17446;48.022;-1.740;2022-11-20T08:23:45;10.70;99.90
30694;DHT22;17446;48.022;-1.740;2022-11-20T08:26:10;10.70;99.90
30694;DHT22;17446;48.022;-1.740;2022-11-20T08:28:36;10.70;99.90
30694;DHT22;17446;48.022;-1.740;2022-11-20T08:31:02;10.70;99.90
30694;DHT22;17446;48.022;-1.740;2022-11-20T08:33:28;10.70;99.90
30694;DHT22;17446;48.022;-1.740;2022-11-20T08:36:01;10.80;99.90
30694;DHT22;17446;48.022;-1.740;2022-11-20T08:38:26;10.80;99.90
30694;DHT22;17446;48.022;-1.740;2022-11-20T08:40:59;10.80;99.90
30694;DHT22;17446;48.022;-1.740;2022-11-20T08:43:43;10.90;99.90
30694;DHT22;17446;48.022;-1.740;2022-11-20T08:46:09;11.00;99.90
30694;DHT22;17446;48.022;-1.740;2022-11-20T08:48:34;11.00;99.90
30694;DHT22;17446;48.022;-1.740;2022-11-20T08:51:00;11.10;99.90
30694;DHT22;17446;48.022;-1.740;2022-11-20T08:53:26;11.20;99.90
30694;DHT22;17446;48.022;-1.740;2022-11-20T08:55:52;11.20;99.90
30694;DHT22;17446;48.022;-1.740;2022-11-20T08:58:17;11.20;99.90
30694;DHT22;17446;48.022;-1.740;2022-11-20T09:00:43;11.30;99.90
30694;DHT22;17446;48.022;-1.740;2022-11-20T09:03:09;11.30;99.90
30694;DHT22;17446;48.022;-1.740;2022-11-20T09:05:34;11.40;99.90
30694;DHT22;17446;48.022;-1.740;2022-11-20T09:08:00;11.40;99.90
30694;DHT22;17446;48.022;-1.740;2022-11-20T09:10:27;11.50;99.90
30694;DHT22;17446;48.022;-1.740;2022-11-20T09:12:53;11.50;99.90
30694;DHT22;17446;48.022;-1.740;2022-11-20T09:15:20;11.50;99.90
30694;DHT22;17446;48.022;-1.740;2022-11-20T09:18:02;11.50;99.90
30694;DHT22;17446;48.022;-1.740;2022-11-20T09:20:30;11.60;99.90
30694;DHT22;17446;48.022;-1.740;2022-11-20T09:22:56;11.60;99.90
30694;DHT22;17446;48.022;-1.740;2022-11-20T09:25:22;11.60;99.90
30694;DHT22;17446;48.022;-1.740;2022-11-20T09:27:48;11.70;99.90
30694;DHT22;17446;48.022;-1.740;2022-11-20T09:30:14;11.70;99.90
30694;DHT22;17446;48.022;-1.740;2022-11-20T09:32:41;11.80;99.90
30694;DHT22;17446;48.022;-1.740;2022-11-20T09:35:07;11.80;99.90
30694;DHT22;17446;48.022;-1.740;2022-11-20T09:37:33;11.80;99.90
30694;DHT22;17446;48.022;-1.740;2022-11-20T09:39:59;11.90;99.90
30694;DHT22;17446;48.022;-1.740;2022-11-20T09:48:29;12.00;99.90
30694;DHT22;17446;48.022;-1.740;2022-11-20T09:56:16;12.20;99.90
30694;DHT22;17446;48.022;-1.740;2022-11-20T09:58:50;12.30;99.90
30694;DHT22;17446;48.022;-1.740;2022-11-20T10:06:30;12.40;99.90
30694;DHT22;17446;48.022;-1.740;2022-11-20T10:17:11;12.60;99.90
30694;DHT22;17446;48.022;-1.740;2022-11-20T10:30:48;12.80;99.90
30694;DHT22;17446;48.022;-1.740;2022-11-20T10:35:49;13.00;99.90
30694;DHT22;17446;48.022;-1.740;2022-11-20T10:38:35;13.00;99.90
30694;DHT22;17446;48.022;-1.740;2022-11-20T10:41:04;13.10;99.90
30694;DHT22;17446;48.022;-1.740;2022-11-20T10:46:24;13.10;99.90
30694;DHT22;17446;48.022;-1.740;2022-11-20T10:48:51;13.20;99.90
30694;DHT22;17446;48.022;-1.740;2022-11-20T11:00:07;13.40;99.90
30694;DHT22;17446;48.022;-1.740;2022-11-20T11:02:41;13.40;99.90
30694;DHT22;17446;48.022;-1.740;2022-11-20T11:07:45;13.40;99.90
30694;DHT22;17446;48.022;-1.740;2022-11-20T11:12:45;13.30;99.90
30694;DHT22;17446;48.022;-1.740;2022-11-20T11:15:29;13.30;99.90
30694;DHT22;17446;48.022;-1.740;2022-11-20T11:17:55;13.30;99.90
30694;DHT22;17446;48.022;-1.740;2022-11-20T11:20:23;13.40;99.90
30694;DHT22;17446;48.022;-1.740;2022-11-20T11:22:55;13.40;99.90
30694;DHT22;17446;48.022;-1.740;2022-11-20T11:27:54;13.50;99.90
30694;DHT22;17446;48.022;-1.740;2022-11-20T11:30:22;13.50;99.90
30694;DHT22;17446;48.022;-1.740;2022-11-20T11:32:48;13.50;99.90
30694;DHT22;17446;48.022;-1.740;2022-11-20T11:35:26;13.50;99.90
30694;DHT22;17446;48.022;-1.740;2022-11-20T11:38:04;13.50;99.90
30694;DHT22;17446;48.022;-1.740;2022-11-20T11:40:32;13.50;99.90
30694;DHT22;17446;48.022;-1.740;2022-11-20T11:43:05;13.50;99.90
30694;DHT22;17446;48.022;-1.740;2022-11-20T11:45:55;13.50;99.90
30694;DHT22;17446;48.022;-1.740;2022-11-20T11:48:21;13.50;99.90
30694;DHT22;17446;48.022;-1.740;2022-11-20T11:50:50;13.50;99.90
30694;DHT22;17446;48.022;-1.740;2022-11-20T11:53:19;13.50;99.90
30694;DHT22;17446;48.022;-1.740;2022-11-20T11:58:28;13.50;99.90
30694;DHT22;17446;48.022;-1.740;2022-11-20T12:01:12;13.50;99.90
30694;DHT22;17446;48.022;-1.740;2022-11-20T12:03:47;13.50;99.90
30694;DHT22;17446;48.022;-1.740;2022-11-20T12:06:16;13.50;99.90
30694;DHT22;17446;48.022;-1.740;2022-11-20T12:08:53;13.50;99.90
30694;DHT22;17446;48.022;-1.740;2022-11-20T12:11:39;13.50;99.90
30694;DHT22;17446;48.022;-1.740;2022-11-20T12:14:22;13.60;99.90
30694;DHT22;17446;48.022;-1.740;2022-11-20T12:16:52;13.60;99.90
30694;DHT22;17446;48.022;-1.740;2022-11-20T12:19:19;13.60;99.90
30694;DHT22;17446;48.022;-1.740;2022-11-20T12:24:37;13.70;99.90
30694;DHT22;17446;48.022;-1.740;2022-11-20T12:27:32;13.80;99.90
30694;DHT22;17446;48.022;-1.740;2022-11-20T12:43:25;14.20;99.90
30694;DHT22;17446;48.022;-1.740;2022-11-20T12:46:39;14.20;99.90
30694;DHT22;17446;48.022;-1.740;2022-11-20T12:49:24;14.10;99.90
30694;DHT22;17446;48.022;-1.740;2022-11-20T12:51:59;14.10;99.90
30694;DHT22;17446;48.022;-1.740;2022-11-20T12:57:29;14.20;99.90
30694;DHT22;17446;48.022;-1.740;2022-11-20T13:00:22;14.10;99.90
30694;DHT22;17446;48.022;-1.740;2022-11-20T13:05:49;14.30;99.90
30694;DHT22;17446;48.022;-1.740;2022-11-20T13:08:39;14.40;99.90
30694;DHT22;17446;48.022;-1.740;2022-11-20T13:19:27;14.70;99.90
30694;DHT22;17446;48.022;-1.740;2022-11-20T13:21:54;14.70;99.90
30694;DHT22;17446;48.022;-1.740;2022-11-20T13:26:45;14.70;99.90
30694;DHT22;17446;48.022;-1.740;2022-11-20T13:29:17;14.60;99.90
30694;DHT22;17446;48.022;-1.740;2022-11-20T13:31:45;14.60;99.90
30694;DHT22;17446;48.022;-1.740;2022-11-20T13:34:14;14.60;99.90
30694;DHT22;17446;48.022;-1.740;2022-11-20T13:36:55;14.50;99.90
30694;DHT22;17446;48.022;-1.740;2022-11-20T13:39:25;14.40;99.90
30694;DHT22;17446;48.022;-1.740;2022-11-20T13:41:55;14.40;99.90
30694;DHT22;17446;48.022;-1.740;2022-11-20T13:44:36;14.40;99.90
30694;DHT22;17446;48.022;-1.740;2022-11-20T13:47:03;14.40;99.90
30694;DHT22;17446;48.022;-1.740;2022-11-20T13:49:40;14.40;99.90
30694;DHT22;17446;48.022;-1.740;2022-11-20T14:00:12;14.50;99.90
30694;DHT22;17446;48.022;-1.740;2022-11-20T14:02:39;14.40;99.90
30694;DHT22;17446;48.022;-1.740;2022-11-20T14:05:05;14.40;99.90
30694;DHT22;17446;48.022;-1.740;2022-11-20T14:07:35;14.40;99.90
30694;DHT22;17446;48.022;-1.740;2022-11-20T14:10:03;14.40;99.90
30694;DHT22;17446;48.022;-1.740;2022-11-20T14:12:31;14.40;99.90
30694;DHT22;17446;48.022;-1.740;2022-11-20T14:14:58;14.30;99.90
30694;DHT22;17446;48.022;-1.740;2022-11-20T14:17:30;14.30;99.90
30694;DHT22;17446;48.022;-1.740;2022-11-20T14:20:00;14.30;99.90
30694;DHT22;17446;48.022;-1.740;2022-11-20T14:22:27;14.30;99.90
30694;DHT22;17446;48.022;-1.740;2022-11-20T14:27:41;14.20;99.90
30694;DHT22;17446;48.022;-1.740;2022-11-20T14:30:16;14.10;99.90
30694;DHT22;17446;48.022;-1.740;2022-11-20T14:32:43;14.10;99.90
30694;DHT22;17446;48.022;-1.740;2022-11-20T14:35:36;14.00;99.90
30694;DHT22;17446;48.022;-1.740;2022-11-20T14:38:01;14.00;99.90
30694;DHT22;17446;48.022;-1.740;2022-11-20T14:42:57;13.90;99.90
30694;DHT22;17446;48.022;-1.740;2022-11-20T14:45:25;13.90;99.90
30694;DHT22;17446;48.022;-1.740;2022-11-20T14:47:56;13.90;99.90
30694;DHT22;17446;48.022;-1.740;2022-11-20T14:50:28;13.80;99.90
30694;DHT22;17446;48.022;-1.740;2022-11-20T14:52:58;13.80;99.90
30694;DHT22;17446;48.022;-1.740;2022-11-20T14:55:34;13.70;99.90
30694;DHT22;17446;48.022;-1.740;2022-11-20T14:58:05;13.70;99.90
30694;DHT22;17446;48.022;-1.740;2022-11-20T15:00:33;13.60;99.90
30694;DHT22;17446;48.022;-1.740;2022-11-20T15:02:59;13.60;99.90
30694;DHT22;17446;48.022;-1.740;2022-11-20T15:05:43;13.60;99.90
30694;DHT22;17446;48.022;-1.740;2022-11-20T15:08:14;13.50;99.90
30694;DHT22;17446;48.022;-1.740;2022-11-20T15:10:49;13.50;99.90
30694;DHT22;17446;48.022;-1.740;2022-11-20T15:13:24;13.50;99.90
30694;DHT22;17446;48.022;-1.740;2022-11-20T15:15:54;13.50;99.90
30694;DHT22;17446;48.022;-1.740;2022-11-20T15:18:31;13.40;99.90
30694;DHT22;17446;48.022;-1.740;2022-11-20T15:21:00;13.30;99.90
30694;DHT22;17446;48.022;-1.740;2022-11-20T15:23:26;13.30;99.90
30694;DHT22;17446;48.022;-1.740;2022-11-20T15:25:53;13.30;99.90
30694;DHT22;17446;48.022;-1.740;2022-11-20T15:28:31;13.20;99.90
30694;DHT22;17446;48.022;-1.740;2022-11-20T15:30:59;13.20;99.90
30694;DHT22;17446;48.022;-1.740;2022-11-20T15:33:25;13.10;99.90
30694;DHT22;17446;48.022;-1.740;2022-11-20T15:35:50;13.00;99.90
30694;DHT22;17446;48.022;-1.740;2022-11-20T15:38:16;13.00;99.90
30694;DHT22;17446;48.022;-1.740;2022-11-20T15:40:42;12.90;99.90
30694;DHT22;17446;48.022;-1.740;2022-11-20T15:43:07;12.90;99.90
30694;DHT22;17446;48.022;-1.740;2022-11-20T15:45:41;12.80;99.90
30694;DHT22;17446;48.022;-1.740;2022-11-20T15:48:23;12.80;99.90
30694;DHT22;17446;48.022;-1.740;2022-11-20T15:53:18;12.60;99.90
30694;DHT22;17446;48.022;-1.740;2022-11-20T15:55:44;12.60;99.90
30694;DHT22;17446;48.022;-1.740;2022-11-20T15:58:10;12.50;99.90
30694;DHT22;17446;48.022;-1.740;2022-11-20T16:00:35;12.50;99.90
30694;DHT22;17446;48.022;-1.740;2022-11-20T16:03:01;12.40;99.90
30694;DHT22;17446;48.022;-1.740;2022-11-20T16:05:29;12.40;99.90
30694;DHT22;17446;48.022;-1.740;2022-11-20T16:07:55;12.30;99.90
30694;DHT22;17446;48.022;-1.740;2022-11-20T16:10:21;12.20;99.90
30694;DHT22;17446;48.022;-1.740;2022-11-20T16:12:47;12.20;99.90
30694;DHT22;17446;48.022;-1.740;2022-11-20T16:15:31;12.10;99.90
30694;DHT22;17446;48.022;-1.740;2022-11-20T16:18:17;12.10;99.90
30694;DHT22;17446;48.022;-1.740;2022-11-20T16:20:45;12.00;99.90
30694;DHT22;17446;48.022;-1.740;2022-11-20T16:23:11;12.00;99.90
30694;DHT22;17446;48.022;-1.740;2022-11-20T16:25:37;12.00;99.90
30694;DHT22;17446;48.022;-1.740;2022-11-20T16:28:03;11.90;99.90
30694;DHT22;17446;48.022;-1.740;2022-11-20T16:30:28;11.80;99.90
30694;DHT22;17446;48.022;-1.740;2022-11-20T16:32:54;11.80;99.90
30694;DHT22;17446;48.022;-1.740;2022-11-20T16:35:20;11.80;99.90
30694;DHT22;17446;48.022;-1.740;2022-11-20T16:37:45;11.70;99.90
30694;DHT22;17446;48.022;-1.740;2022-11-20T16:40:11;11.70;99.90
30694;DHT22;17446;48.022;-1.740;2022-11-20T16:42:37;11.60;99.90
30694;DHT22;17446;48.022;-1.740;2022-11-20T16:45:03;11.60;99.90
30694;DHT22;17446;48.022;-1.740;2022-11-20T16:47:33;11.50;99.90
30694;DHT22;17446;48.022;-1.740;2022-11-20T16:49:59;11.50;99.90
30694;DHT22;17446;48.022;-1.740;2022-11-20T16:52:25;11.50;99.90
30694;DHT22;17446;48.022;-1.740;2022-11-20T16:54:50;11.40;99.90
30694;DHT22;17446;48.022;-1.740;2022-11-20T16:57:16;11.40;99.90
30694;DHT22;17446;48.022;-1.740;2022-11-20T16:59:42;11.40;99.90
30694;DHT22;17446;48.022;-1.740;2022-11-20T17:02:09;11.40;99.90
30694;DHT22;17446;48.022;-1.740;2022-11-20T17:04:35;11.30;99.90
30694;DHT22;17446;48.022;-1.740;2022-11-20T17:07:00;11.30;99.90
30694;DHT22;17446;48.022;-1.740;2022-11-20T17:09:27;11.30;99.90
30694;DHT22;17446;48.022;-1.740;2022-11-20T17:11:53;11.20;99.90
30694;DHT22;17446;48.022;-1.740;2022-11-20T17:14:19;11.20;99.90
30694;DHT22;17446;48.022;-1.740;2022-11-20T17:16:44;11.10;99.90
30694;DHT22;17446;48.022;-1.740;2022-11-20T17:19:10;11.10;99.90
30694;DHT22;17446;48.022;-1.740;2022-11-20T17:21:36;11.10;99.90
30694;DHT22;17446;48.022;-1.740;2022-11-20T17:24:05;11.10;99.90
30694;DHT22;17446;48.022;-1.740;2022-11-20T17:26:31;11.10;99.90